sensor_id;sensor_type;location;lat;lon;timestamp;pressure;altitude;pressure_sealevel;temperature;humidity
45323;BME280;31382;50.200;8.674;2024-02-21T00:01:24;101225.44;;;9.20;66.96
45323;BME280;31382;50.200;8.674;2024-02-21T00:06:26;101219.22;;;9.19;67.41
45323;BME280;31382;50.200;8.674;2024-02-21T00:11:28;101221.09;;;9.09;67.79
45323;BME280;31382;50.200;8.674;2024-02-21T00:16:29;101227.59;;;9.06;68.17
45323;BME280;31382;50.200;8.674;2024-02-21T00:21:31;101223.34;;;9.04;68.53
45323;BME280;31382;50.200;8.674;2024-02-21T00:26:32;101212.06;;;9.00;68.50
45323;BME280;31382;50.200;8.674;2024-02-21T00:31:34;101205.41;;;9.04;68.73
45323;BME280;31382;50.200;8.674;2024-02-21T00:36:35;101188.63;;;9.02;68.97
45323;BME280;31382;50.200;8.674;2024-02-21T00:41:37;101184.53;;;9.08;69.17
45323;BME280;31382;50.200;8.674;2024-02-21T00:46:38;101165.03;;;9.16;68.88
45323;BME280;31382;50.200;8.674;2024-02-21T00:51:40;101160.22;;;9.19;69.06
45323;BME280;31382;50.200;8.674;2024-02-21T00:56:42;101144.56;;;9.15;69.38
45323;BME280;31382;50.200;8.674;2024-02-21T01:01:44;101153.03;;;9.10;69.66
45323;BME280;31382;50.200;8.674;2024-02-21T01:06:46;101174.22;;;9.13;69.45
45323;BME280;31382;50.200;8.674;2024-02-21T01:11:47;101181.44;;;9.03;70.28
45323;BME280;31382;50.200;8.674;2024-02-21T01:16:48;101179.75;;;9.02;70.48
45323;BME280;31382;50.200;8.674;2024-02-21T01:21:50;101183.09;;;9.13;70.41
45323;BME280;31382;50.200;8.674;2024-02-21T01:26:52;101159.06;;;9.22;69.92
45323;BME280;31382;50.200;8.674;2024-02-21T01:31:53;101166.28;;;9.21;69.97
45323;BME280;31382;50.200;8.674;2024-02-21T01:36:55;101167.06;;;9.31;69.90
45323;BME280;31382;50.200;8.674;2024-02-21T01:41:56;101154.13;;;9.27;69.95
45323;BME280;31382;50.200;8.674;2024-02-21T01:46:57;101144.81;;;9.21;70.39
45323;BME280;31382;50.200;8.674;2024-02-21T01:52:00;101133.94;;;9.23;70.16
45323;BME280;31382;50.200;8.674;2024-02-21T01:57:02;101122.81;;;9.18;70.21
45323;BME280;31382;50.200;8.674;2024-02-21T02:02:04;101117.34;;;9.09;71.02
45323;BME280;31382;50.200;8.674;2024-02-21T02:07:06;101114.38;;;9.12;70.96
45323;BME280;31382;50.200;8.674;2024-02-21T02:12:08;101108.28;;;9.20;70.74
45323;BME280;31382;50.200;8.674;2024-02-21T02:17:10;101119.53;;;9.24;70.60
45323;BME280;31382;50.200;8.674;2024-02-21T02:22:17;101109.06;;;9.30;70.53
45323;BME280;31382;50.200;8.674;2024-02-21T02:27:20;101094.03;;;9.38;70.39
45323;BME280;31382;50.200;8.674;2024-02-21T02:32:24;101090.06;;;9.42;70.44
45323;BME280;31382;50.200;8.674;2024-02-21T02:37:25;101078.06;;;9.46;70.31
45323;BME280;31382;50.200;8.674;2024-02-21T02:42:26;101079.72;;;9.47;70.39
45323;BME280;31382;50.200;8.674;2024-02-21T02:47:28;101061.78;;;9.47;70.40
45323;BME280;31382;50.200;8.674;2024-02-21T02:52:29;101054.13;;;9.52;70.26
45323;BME280;31382;50.200;8.674;2024-02-21T02:57:31;101049.06;;;9.49;70.42
45323;BME280;31382;50.200;8.674;2024-02-21T03:02:33;101062.66;;;9.48;70.73
45323;BME280;31382;50.200;8.674;2024-02-21T03:07:34;101059.09;;;9.47;70.73
45323;BME280;31382;50.200;8.674;2024-02-21T03:12:36;101042.31;;;9.45;70.80
45323;BME280;31382;50.200;8.674;2024-02-21T03:17:37;101031.81;;;9.52;70.57
45323;BME280;31382;50.200;8.674;2024-02-21T03:22:40;101014.72;;;9.53;70.59
45323;BME280;31382;50.200;8.674;2024-02-21T03:27:42;101010.50;;;9.50;70.72
45323;BME280;31382;50.200;8.674;2024-02-21T03:32:44;101019.09;;;9.54;70.40
45323;BME280;31382;50.200;8.674;2024-02-21T03:37:45;101003.34;;;9.59;70.21
45323;BME280;31382;50.200;8.674;2024-02-21T03:42:47;100995.00;;;9.62;70.24
45323;BME280;31382;50.200;8.674;2024-02-21T03:47:48;100977.75;;;9.65;70.15
45323;BME280;31382;50.200;8.674;2024-02-21T03:52:50;100985.50;;;9.50;69.94
45323;BME280;31382;50.200;8.674;2024-02-21T03:57:51;100999.16;;;9.39;70.45
45323;BME280;31382;50.200;8.674;2024-02-21T04:02:53;100997.16;;;9.41;70.54
45323;BME280;31382;50.200;8.674;2024-02-21T04:07:54;100993.09;;;9.37;70.51
45323;BME280;31382;50.200;8.674;2024-02-21T04:12:56;100992.06;;;9.38;70.57
45323;BME280;31382;50.200;8.674;2024-02-21T04:17:57;101003.34;;;9.41;70.44
45323;BME280;31382;50.200;8.674;2024-02-21T04:22:59;101002.44;;;9.50;70.22
45323;BME280;31382;50.200;8.674;2024-02-21T04:28:01;100976.84;;;9.56;70.33
45323;BME280;31382;50.200;8.674;2024-02-21T04:33:02;100955.78;;;9.69;69.75
45323;BME280;31382;50.200;8.674;2024-02-21T04:38:05;100956.28;;;9.65;69.80
45323;BME280;31382;50.200;8.674;2024-02-21T04:43:07;100934.44;;;9.60;70.33
45323;BME280;31382;50.200;8.674;2024-02-21T04:48:08;100955.19;;;9.58;70.34
45323;BME280;31382;50.200;8.674;2024-02-21T04:53:10;100961.97;;;9.62;70.36
45323;BME280;31382;50.200;8.674;2024-02-21T04:58:11;100950.06;;;9.64;69.83
45323;BME280;31382;50.200;8.674;2024-02-21T05:03:13;100936.16;;;9.69;70.05
45323;BME280;31382;50.200;8.674;2024-02-21T05:08:15;100939.31;;;9.64;69.90
45323;BME280;31382;50.200;8.674;2024-02-21T05:13:17;100943.31;;;9.60;70.31
45323;BME280;31382;50.200;8.674;2024-02-21T05:18:18;100944.69;;;9.64;70.12
45323;BME280;31382;50.200;8.674;2024-02-21T05:23:21;100952.22;;;9.61;70.06
45323;BME280;31382;50.200;8.674;2024-02-21T05:28:24;100946.31;;;9.57;70.38
45323;BME280;31382;50.200;8.674;2024-02-21T05:33:26;100960.75;;;9.56;70.15
45323;BME280;31382;50.200;8.674;2024-02-21T05:38:27;100962.03;;;9.52;70.38
45323;BME280;31382;50.200;8.674;2024-02-21T05:43:29;100958.13;;;9.46;70.71
45323;BME280;31382;50.200;8.674;2024-02-21T05:48:31;100945.41;;;9.48;70.52
45323;BME280;31382;50.200;8.674;2024-02-21T05:53:38;100928.63;;;9.46;70.66
45323;BME280;31382;50.200;8.674;2024-02-21T05:58:42;100920.31;;;9.40;70.45
45323;BME280;31382;50.200;8.674;2024-02-21T06:03:43;100910.53;;;9.30;70.41
45323;BME280;31382;50.200;8.674;2024-02-21T06:08:45;100905.16;;;9.30;70.06
45323;BME280;31382;50.200;8.674;2024-02-21T06:13:47;100879.41;;;9.20;70.36
45323;BME280;31382;50.200;8.674;2024-02-21T06:18:48;100873.81;;;9.13;69.94
45323;BME280;31382;50.200;8.674;2024-02-21T06:23:54;100884.63;;;9.03;70.47
45323;BME280;31382;50.200;8.674;2024-02-21T06:28:56;100875.34;;;8.98;70.56
45323;BME280;31382;50.200;8.674;2024-02-21T06:33:59;100880.63;;;8.89;70.52
45323;BME280;31382;50.200;8.674;2024-02-21T06:39:03;100874.88;;;8.84;70.33
45323;BME280;31382;50.200;8.674;2024-02-21T06:44:09;100863.31;;;8.84;69.80
45323;BME280;31382;50.200;8.674;2024-02-21T06:49:11;100864.84;;;8.86;70.39
45323;BME280;31382;50.200;8.674;2024-02-21T06:54:19;100864.84;;;8.86;70.17
45323;BME280;31382;50.200;8.674;2024-02-21T06:59:20;100871.75;;;8.89;70.19
45323;BME280;31382;50.200;8.674;2024-02-21T07:04:22;100884.00;;;8.91;69.88
45323;BME280;31382;50.200;8.674;2024-02-21T07:09:24;100883.38;;;8.98;69.77
45323;BME280;31382;50.200;8.674;2024-02-21T07:14:28;100878.56;;;9.01;69.88
45323;BME280;31382;50.200;8.674;2024-02-21T07:19:29;100873.44;;;9.08;69.86
45323;BME280;31382;50.200;8.674;2024-02-21T07:24:31;100864.75;;;9.14;69.77
45323;BME280;31382;50.200;8.674;2024-02-21T07:29:33;100864.25;;;9.28;69.30
45323;BME280;31382;50.200;8.674;2024-02-21T07:34:35;100864.31;;;9.37;69.39
45323;BME280;31382;50.200;8.674;2024-02-21T07:39:36;100872.84;;;9.58;68.81
45323;BME280;31382;50.200;8.674;2024-02-21T07:44:40;100871.44;;;9.72;68.60
45323;BME280;31382;50.200;8.674;2024-02-21T07:49:45;100868.13;;;9.78;68.52
45323;BME280;31382;50.200;8.674;2024-02-21T07:54:47;100871.38;;;9.90;68.44
45323;BME280;31382;50.200;8.674;2024-02-21T07:59:48;100871.44;;;9.98;68.12
45323;BME280;31382;50.200;8.674;2024-02-21T08:04:50;100864.47;;;10.13;67.71
45323;BME280;31382;50.200;8.674;2024-02-21T08:09:51;100865.81;;;10.18;67.40
45323;BME280;31382;50.200;8.674;2024-02-21T08:14:53;100852.56;;;10.24;66.93
45323;BME280;31382;50.200;8.674;2024-02-21T08:19:54;100854.44;;;10.24;67.00
45323;BME280;31382;50.200;8.674;2024-02-21T08:24:56;100837.69;;;10.30;66.66
45323;BME280;31382;50.200;8.674;2024-02-21T08:29:57;100838.84;;;10.27;66.22
45323;BME280;31382;50.200;8.674;2024-02-21T08:34:59;100838.53;;;10.30;65.50
45323;BME280;31382;50.200;8.674;2024-02-21T08:40:00;100844.81;;;10.47;65.34
45323;BME280;31382;50.200;8.674;2024-02-21T08:45:09;100839.44;;;10.56;64.99
45323;BME280;31382;50.200;8.674;2024-02-21T08:50:11;100820.81;;;10.62;64.89
45323;BME280;31382;50.200;8.674;2024-02-21T08:55:27;100812.94;;;10.77;64.07
45323;BME280;31382;50.200;8.674;2024-02-21T09:00:28;100802.19;;;10.85;63.83
45323;BME280;31382;50.200;8.674;2024-02-21T09:05:30;100794.31;;;10.92;63.58
45323;BME280;31382;50.200;8.674;2024-02-21T09:10:32;100791.13;;;11.05;63.14
45323;BME280;31382;50.200;8.674;2024-02-21T09:15:33;100777.34;;;11.08;63.07
45323;BME280;31382;50.200;8.674;2024-02-21T09:20:35;100778.34;;;10.99;62.42
45323;BME280;31382;50.200;8.674;2024-02-21T09:25:37;100772.97;;;10.99;62.42
45323;BME280;31382;50.200;8.674;2024-02-21T09:30:38;100776.16;;;11.02;62.05
45323;BME280;31382;50.200;8.674;2024-02-21T09:35:40;100766.06;;;11.13;61.86
45323;BME280;31382;50.200;8.674;2024-02-21T09:40:41;100762.56;;;11.04;61.46
45323;BME280;31382;50.200;8.674;2024-02-21T09:45:46;100753.59;;;11.11;60.97
45323;BME280;31382;50.200;8.674;2024-02-21T09:50:48;100752.94;;;11.26;61.12
45323;BME280;31382;50.200;8.674;2024-02-21T09:55:50;100750.22;;;11.34;60.35
45323;BME280;31382;50.200;8.674;2024-02-21T10:00:52;100744.63;;;11.52;59.83
45323;BME280;31382;50.200;8.674;2024-02-21T10:05:54;100737.19;;;11.62;59.59
45323;BME280;31382;50.200;8.674;2024-02-21T10:10:55;100747.69;;;11.88;59.46
45323;BME280;31382;50.200;8.674;2024-02-21T10:16:09;100725.84;;;11.92;58.58
45323;BME280;31382;50.200;8.674;2024-02-21T10:21:11;100723.28;;;11.98;58.82
45323;BME280;31382;50.200;8.674;2024-02-21T10:26:13;100711.50;;;11.99;58.18
45323;BME280;31382;50.200;8.674;2024-02-21T10:31:25;100714.63;;;12.11;57.68
45323;BME280;31382;50.200;8.674;2024-02-21T10:36:27;100694.88;;;12.19;57.82
45323;BME280;31382;50.200;8.674;2024-02-21T10:41:30;100681.91;;;12.14;57.96
45323;BME280;31382;50.200;8.674;2024-02-21T10:46:35;100679.38;;;12.21;57.23
45323;BME280;31382;50.200;8.674;2024-02-21T10:51:42;100678.16;;;12.23;56.74
45323;BME280;31382;50.200;8.674;2024-02-21T10:56:44;100665.78;;;12.37;57.17
45323;BME280;31382;50.200;8.674;2024-02-21T11:01:47;100658.72;;;12.36;56.86
45323;BME280;31382;50.200;8.674;2024-02-21T11:06:49;100653.28;;;12.59;56.56
45323;BME280;31382;50.200;8.674;2024-02-21T11:11:52;100650.25;;;12.77;56.03
45323;BME280;31382;50.200;8.674;2024-02-21T11:16:54;100625.25;;;12.83;56.15
45323;BME280;31382;50.200;8.674;2024-02-21T11:21:57;100618.00;;;12.84;55.92
45323;BME280;31382;50.200;8.674;2024-02-21T11:27:21;100613.34;;;12.78;56.34
45323;BME280;31382;50.200;8.674;2024-02-21T11:32:23;100588.88;;;12.79;55.80
45323;BME280;31382;50.200;8.674;2024-02-21T11:37:25;100583.00;;;13.20;55.57
45323;BME280;31382;50.200;8.674;2024-02-21T11:42:29;100568.91;;;13.33;55.21
45323;BME280;31382;50.200;8.674;2024-02-21T11:47:31;100562.69;;;13.54;55.56
45323;BME280;31382;50.200;8.674;2024-02-21T11:52:33;100551.72;;;13.77;55.16
45323;BME280;31382;50.200;8.674;2024-02-21T11:57:34;100540.84;;;13.71;55.32
45323;BME280;31382;50.200;8.674;2024-02-21T12:02:37;100534.22;;;13.73;55.37
45323;BME280;31382;50.200;8.674;2024-02-21T12:07:39;100527.91;;;13.66;55.58
45323;BME280;31382;50.200;8.674;2024-02-21T12:12:41;100514.16;;;13.61;55.83
45323;BME280;31382;50.200;8.674;2024-02-21T12:17:43;100497.00;;;13.68;55.68
45323;BME280;31382;50.200;8.674;2024-02-21T12:22:45;100492.91;;;13.58;55.99
45323;BME280;31382;50.200;8.674;2024-02-21T12:27:46;100480.06;;;13.60;55.93
45323;BME280;31382;50.200;8.674;2024-02-21T12:32:48;100459.78;;;13.92;55.44
45323;BME280;31382;50.200;8.674;2024-02-21T12:37:50;100452.84;;;14.11;54.88
45323;BME280;31382;50.200;8.674;2024-02-21T12:42:51;100444.22;;;13.94;55.14
45323;BME280;31382;50.200;8.674;2024-02-21T12:47:53;100430.84;;;14.14;54.51
45323;BME280;31382;50.200;8.674;2024-02-21T12:52:55;100425.00;;;14.45;53.92
45323;BME280;31382;50.200;8.674;2024-02-21T12:58:00;100432.63;;;14.35;54.02
45323;BME280;31382;50.200;8.674;2024-02-21T13:03:04;100426.72;;;14.18;54.34
45323;BME280;31382;50.200;8.674;2024-02-21T13:08:06;100415.16;;;14.03;54.28
45323;BME280;31382;50.200;8.674;2024-02-21T13:13:08;100396.28;;;14.09;54.21
45323;BME280;31382;50.200;8.674;2024-02-21T13:18:09;100392.28;;;13.99;54.41
45323;BME280;31382;50.200;8.674;2024-02-21T13:23:11;100372.63;;;13.83;54.53
45323;BME280;31382;50.200;8.674;2024-02-21T13:28:14;100353.66;;;13.77;54.51
45323;BME280;31382;50.200;8.674;2024-02-21T13:33:17;100347.09;;;13.64;54.51
45323;BME280;31382;50.200;8.674;2024-02-21T13:38:19;100337.69;;;13.54;54.25
45323;BME280;31382;50.200;8.674;2024-02-21T13:43:20;100334.94;;;13.47;54.60
45323;BME280;31382;50.200;8.674;2024-02-21T13:48:23;100323.81;;;13.57;54.47
45323;BME280;31382;50.200;8.674;2024-02-21T13:53:24;100323.06;;;13.69;54.16
45323;BME280;31382;50.200;8.674;2024-02-21T13:58:26;100293.63;;;14.23;52.67
45323;BME280;31382;50.200;8.674;2024-02-21T14:03:28;100269.28;;;14.84;51.40
45323;BME280;31382;50.200;8.674;2024-02-21T14:08:29;100270.75;;;14.87;51.30
45323;BME280;31382;50.200;8.674;2024-02-21T14:13:31;100255.28;;;14.61;51.21
45323;BME280;31382;50.200;8.674;2024-02-21T14:18:32;100243.19;;;14.50;51.75
45323;BME280;31382;50.200;8.674;2024-02-21T14:23:34;100235.50;;;14.54;52.23
45323;BME280;31382;50.200;8.674;2024-02-21T14:28:35;100224.41;;;14.35;52.32
45323;BME280;31382;50.200;8.674;2024-02-21T14:33:37;100206.47;;;14.21;52.68
45323;BME280;31382;50.200;8.674;2024-02-21T14:38:39;100216.22;;;14.08;53.03
45323;BME280;31382;50.200;8.674;2024-02-21T14:43:40;100191.69;;;14.10;52.89
45323;BME280;31382;50.200;8.674;2024-02-21T14:48:42;100167.13;;;13.98;53.11
45323;BME280;31382;50.200;8.674;2024-02-21T14:53:43;100168.50;;;13.81;53.21
45323;BME280;31382;50.200;8.674;2024-02-21T14:58:45;100177.81;;;13.72;53.23
45323;BME280;31382;50.200;8.674;2024-02-21T15:03:50;100157.41;;;13.62;53.22
45323;BME280;31382;50.200;8.674;2024-02-21T15:08:52;100150.72;;;13.58;53.15
45323;BME280;31382;50.200;8.674;2024-02-21T15:13:54;100125.41;;;13.66;52.83
45323;BME280;31382;50.200;8.674;2024-02-21T15:18:55;100104.66;;;13.66;52.84
45323;BME280;31382;50.200;8.674;2024-02-21T15:23:57;100102.34;;;13.63;53.36
45323;BME280;31382;50.200;8.674;2024-02-21T15:28:59;100085.28;;;13.49;53.76
45323;BME280;31382;50.200;8.674;2024-02-21T15:34:01;100084.56;;;13.34;54.37
45323;BME280;31382;50.200;8.674;2024-02-21T15:39:02;100067.69;;;13.25;54.43
45323;BME280;31382;50.200;8.674;2024-02-21T15:44:04;100057.00;;;13.04;54.89
45323;BME280;31382;50.200;8.674;2024-02-21T15:49:06;100051.16;;;13.00;55.11
45323;BME280;31382;50.200;8.674;2024-02-21T15:54:09;100066.53;;;13.00;55.16
45323;BME280;31382;50.200;8.674;2024-02-21T15:59:11;100044.06;;;12.93;55.34
45323;BME280;31382;50.200;8.674;2024-02-21T16:04:13;100054.19;;;12.84;55.36
45323;BME280;31382;50.200;8.674;2024-02-21T16:09:17;100043.59;;;12.82;55.46
45323;BME280;31382;50.200;8.674;2024-02-21T16:14:18;100037.13;;;12.77;55.51
45323;BME280;31382;50.200;8.674;2024-02-21T16:19:20;100030.47;;;12.73;55.75
45323;BME280;31382;50.200;8.674;2024-02-21T16:24:21;100022.97;;;12.68;55.77
45323;BME280;31382;50.200;8.674;2024-02-21T16:29:23;100009.22;;;12.63;55.97
45323;BME280;31382;50.200;8.674;2024-02-21T16:34:24;99997.97;;;12.53;56.15
45323;BME280;31382;50.200;8.674;2024-02-21T16:39:26;99973.06;;;12.50;56.19
45323;BME280;31382;50.200;8.674;2024-02-21T16:44:27;99968.03;;;12.41;56.57
45323;BME280;31382;50.200;8.674;2024-02-21T16:49:29;99972.88;;;12.24;56.82
45323;BME280;31382;50.200;8.674;2024-02-21T16:54:34;99976.78;;;12.15;57.10
45323;BME280;31382;50.200;8.674;2024-02-21T16:59:35;99967.59;;;12.09;57.22
45323;BME280;31382;50.200;8.674;2024-02-21T17:04:38;99967.16;;;12.05;56.65
45323;BME280;31382;50.200;8.674;2024-02-21T17:09:40;99965.47;;;12.04;56.75
45323;BME280;31382;50.200;8.674;2024-02-21T17:14:41;99960.03;;;11.98;57.13
45323;BME280;31382;50.200;8.674;2024-02-21T17:19:45;99953.19;;;11.95;56.88
45323;BME280;31382;50.200;8.674;2024-02-21T17:24:47;99938.66;;;11.89;57.24
45323;BME280;31382;50.200;8.674;2024-02-21T17:29:48;99942.91;;;11.84;57.35
45323;BME280;31382;50.200;8.674;2024-02-21T17:34:50;99939.47;;;11.90;57.44
45323;BME280;31382;50.200;8.674;2024-02-21T17:39:52;99924.34;;;11.89;57.21
45323;BME280;31382;50.200;8.674;2024-02-21T17:44:54;99921.00;;;11.87;57.53
45323;BME280;31382;50.200;8.674;2024-02-21T17:49:56;99907.91;;;11.84;57.24
45323;BME280;31382;50.200;8.674;2024-02-21T17:54:57;99912.28;;;11.85;57.23
45323;BME280;31382;50.200;8.674;2024-02-21T18:00:00;99906.81;;;11.78;57.68
45323;BME280;31382;50.200;8.674;2024-02-21T18:05:03;99903.56;;;11.83;57.58
45323;BME280;31382;50.200;8.674;2024-02-21T18:10:05;99887.81;;;11.86;57.48
45323;BME280;31382;50.200;8.674;2024-02-21T18:15:07;99866.91;;;11.88;57.09
45323;BME280;31382;50.200;8.674;2024-02-21T18:20:09;99880.66;;;11.94;57.07
45323;BME280;31382;50.200;8.674;2024-02-21T18:25:11;99892.38;;;11.86;57.05
45323;BME280;31382;50.200;8.674;2024-02-21T18:30:13;99887.47;;;11.89;56.93
45323;BME280;31382;50.200;8.674;2024-02-21T18:35:16;99861.38;;;11.90;56.98
45323;BME280;31382;50.200;8.674;2024-02-21T18:40:18;99852.50;;;11.96;56.66
45323;BME280;31382;50.200;8.674;2024-02-21T18:45:19;99850.44;;;11.98;56.51
45323;BME280;31382;50.200;8.674;2024-02-21T18:50:21;99848.16;;;11.95;56.48
45323;BME280;31382;50.200;8.674;2024-02-21T18:55:23;99855.00;;;11.98;56.48
45323;BME280;31382;50.200;8.674;2024-02-21T19:00:25;99836.75;;;11.93;56.42
45323;BME280;31382;50.200;8.674;2024-02-21T19:05:27;99824.09;;;11.94;56.29
45323;BME280;31382;50.200;8.674;2024-02-21T19:10:33;99812.53;;;12.00;55.97
45323;BME280;31382;50.200;8.674;2024-02-21T19:15:43;99793.66;;;11.93;56.05
45323;BME280;31382;50.200;8.674;2024-02-21T19:20:50;99769.63;;;11.98;56.11
45323;BME280;31382;50.200;8.674;2024-02-21T19:25:53;99779.31;;;11.93;56.07
45323;BME280;31382;50.200;8.674;2024-02-21T19:30:54;99748.28;;;11.97;55.93
45323;BME280;31382;50.200;8.674;2024-02-21T19:35:56;99751.19;;;11.95;56.52
45323;BME280;31382;50.200;8.674;2024-02-21T19:40:57;99759.53;;;11.79;57.01
45323;BME280;31382;50.200;8.674;2024-02-21T19:45:59;99744.94;;;11.60;57.47
45323;BME280;31382;50.200;8.674;2024-02-21T19:51:02;99741.72;;;11.43;58.19
45323;BME280;31382;50.200;8.674;2024-02-21T19:56:05;99726.84;;;11.19;59.04
45323;BME280;31382;50.200;8.674;2024-02-21T20:01:08;99712.16;;;10.93;59.75
45323;BME280;31382;50.200;8.674;2024-02-21T20:06:09;99689.72;;;10.58;61.16
45323;BME280;31382;50.200;8.674;2024-02-21T20:11:11;99688.53;;;10.24;62.63
45323;BME280;31382;50.200;8.674;2024-02-21T20:16:12;99662.28;;;10.04;63.53
45323;BME280;31382;50.200;8.674;2024-02-21T20:21:14;99659.94;;;9.80;64.79
45323;BME280;31382;50.200;8.674;2024-02-21T20:26:15;99650.97;;;9.72;65.66
45323;BME280;31382;50.200;8.674;2024-02-21T20:31:17;99637.75;;;9.71;65.97
45323;BME280;31382;50.200;8.674;2024-02-21T20:36:21;99613.06;;;9.61;66.34
45323;BME280;31382;50.200;8.674;2024-02-21T20:41:23;99611.78;;;9.57;67.11
45323;BME280;31382;50.200;8.674;2024-02-21T20:46:25;99598.38;;;9.42;67.97
45323;BME280;31382;50.200;8.674;2024-02-21T20:51:27;99576.84;;;9.35;68.78
45323;BME280;31382;50.200;8.674;2024-02-21T20:56:28;99564.63;;;9.32;69.69
45323;BME280;31382;50.200;8.674;2024-02-21T21:01:30;99548.56;;;9.32;69.89
45323;BME280;31382;50.200;8.674;2024-02-21T21:06:33;99542.25;;;9.25;70.65
45323;BME280;31382;50.200;8.674;2024-02-21T21:11:35;99547.38;;;9.20;71.24
45323;BME280;31382;50.200;8.674;2024-02-21T21:16:46;99557.41;;;9.18;71.34
45323;BME280;31382;50.200;8.674;2024-02-21T21:21:48;99550.94;;;9.27;71.42
45323;BME280;31382;50.200;8.674;2024-02-21T21:26:51;99544.75;;;9.27;71.73
45323;BME280;31382;50.200;8.674;2024-02-21T21:31:53;99535.03;;;9.26;72.08
45323;BME280;31382;50.200;8.674;2024-02-21T21:36:55;99532.19;;;9.27;72.19
45323;BME280;31382;50.200;8.674;2024-02-21T21:41:56;99532.19;;;9.27;72.34
45323;BME280;31382;50.200;8.674;2024-02-21T21:46:58;99516.72;;;9.29;72.73
45323;BME280;31382;50.200;8.674;2024-02-21T21:52:00;99505.47;;;9.34;72.89
45323;BME280;31382;50.200;8.674;2024-02-21T21:57:16;99499.06;;;9.35;73.28
45323;BME280;31382;50.200;8.674;2024-02-21T22:02:18;99488.38;;;9.42;73.04
45323;BME280;31382;50.200;8.674;2024-02-21T22:07:19;99478.69;;;9.41;73.45
45323;BME280;31382;50.200;8.674;2024-02-21T22:12:21;99477.22;;;9.38;73.82
45323;BME280;31382;50.200;8.674;2024-02-21T22:17:22;99476.50;;;9.29;74.41
45323;BME280;31382;50.200;8.674;2024-02-21T22:22:24;99463.19;;;9.36;74.29
45323;BME280;31382;50.200;8.674;2024-02-21T22:27:26;99450.41;;;9.38;74.40
45323;BME280;31382;50.200;8.674;2024-02-21T22:32:28;99439.03;;;9.36;74.90
45323;BME280;31382;50.200;8.674;2024-02-21T22:37:30;99434.38;;;9.45;74.76
45323;BME280;31382;50.200;8.674;2024-02-21T22:42:31;99427.47;;;9.57;74.52
45323;BME280;31382;50.200;8.674;2024-02-21T22:47:33;99415.22;;;9.48;75.24
45323;BME280;31382;50.200;8.674;2024-02-21T22:52:34;99406.59;;;9.52;75.36
45323;BME280;31382;50.200;8.674;2024-02-21T22:57:36;99399.38;;;9.53;75.25
45323;BME280;31382;50.200;8.674;2024-02-21T23:02:44;99388.44;;;9.55;75.61
45323;BME280;31382;50.200;8.674;2024-02-21T23:07:45;99374.72;;;9.43;76.03
45323;BME280;31382;50.200;8.674;2024-02-21T23:12:51;99360.72;;;9.47;76.10
45323;BME280;31382;50.200;8.674;2024-02-21T23:17:53;99349.81;;;9.49;76.13
45323;BME280;31382;50.200;8.674;2024-02-21T23:22:56;99336.34;;;9.42;76.46
45323;BME280;31382;50.200;8.674;2024-02-21T23:27:58;99333.44;;;9.44;76.69
45323;BME280;31382;50.200;8.674;2024-02-21T23:32:59;99319.84;;;9.45;76.95
45323;BME280;31382;50.200;8.674;2024-02-21T23:38:02;99308.25;;;9.38;77.08
45323;BME280;31382;50.200;8.674;2024-02-21T23:43:06;99304.53;;;9.39;77.31
45323;BME280;31382;50.200;8.674;2024-02-21T23:48:08;99291.31;;;9.38;77.37
45323;BME280;31382;50.200;8.674;2024-02-21T23:53:10;99296.69;;;9.38;77.60
45323;BME280;31382;50.200;8.674;2024-02-21T23:58:12;99279.94;;;9.36;77.81
